Kapellen, Belgium
Current Conditions -  °F | °C
As of 9:50 PM on Tuesday 21 Oct 2014 (Local Time) from EBAW Reporting Station
Few Clouds Few Clouds  
Wind Chill: 52°   Ceiling: Unl
Heat Index: 52°   Visibility: 6mi
Dew Point: 39°   Wind: 18mph
Humidity: 62%   Direction: 300°WNW
Pressure: 29.8"   Gusts: 31mph
Location:  51.31°N, 4.44°E
Report Text: EBAW 211950Z 30016G27KT 9999 FEW036 11/04 Q1009 NOSIG
Loading
Personal Weather Stations






























Interactive Weather Map
Tropical Storm Tracking
New forecast layout! Learn more

10-Day Weather Forecast

Advertisements
Track Severe Weather on mobile